JBU1062 KPBI-KLGA
Flight info
| Callsign | JBU1062 |
|---|---|
| Flight time | N/A |
| Altitude | 35000 |
| Route | SLIDZ3 LENDS DCT GRUBR Y299 SEELO DCT GARIC Q107 HURTS PROUD2 |
| Aircraft | A320/M-SDE3GHIJ3J4J7M3P2RWZ/LB1D1 |
Departure
| Time | 2026-05-05 11:33 |
|---|---|
| Airport | Palm Beach International Airport (KPBI) |
Arrival
| Time | N/A |
|---|---|
| Airport | LaGuardia Airport (KLGA) |
| Time | Latitude | Longitude | Altitude | Speed | Heading |
|---|---|---|---|---|---|
| 2026-05-05 10:51 | 26.68571 | -80.08867 | 22 ft | 0 kts | 272° |
| 2026-05-05 11:21 | 26.68571 | -80.08852 | 22 ft | 3 kts | 272° |
| 2026-05-05 11:21 | 26.68570 | -80.08826 | 22 ft | 3 kts | 271° |
| 2026-05-05 11:22 | 26.68570 | -80.08801 | 22 ft | 3 kts | 265° |
| 2026-05-05 11:22 | 26.68574 | -80.08778 | 22 ft | 3 kts | 234° |
| 2026-05-05 11:22 | 26.68584 | -80.08768 | 23 ft | 0 kts | 181° |
| 2026-05-05 11:26 | 26.68564 | -80.08769 | 24 ft | 6 kts | 181° |
| 2026-05-05 11:26 | 26.68503 | -80.08772 | 22 ft | 10 kts | 182° |
| 2026-05-05 11:27 | 26.68441 | -80.08758 | 22 ft | 9 kts | 123° |
| 2026-05-05 11:27 | 26.68389 | -80.08720 | 22 ft | 9 kts | 181° |
| 2026-05-05 11:27 | 26.68342 | -80.08756 | 22 ft | 10 kts | 256° |
| 2026-05-05 11:27 | 26.68345 | -80.08840 | 22 ft | 13 kts | 273° |
| 2026-05-05 11:28 | 26.68349 | -80.08952 | 22 ft | 16 kts | 273° |
| 2026-05-05 11:28 | 26.68356 | -80.09087 | 22 ft | 19 kts | 273° |
| 2026-05-05 11:28 | 26.68363 | -80.09248 | 22 ft | 23 kts | 273° |
| 2026-05-05 11:28 | 26.68371 | -80.09442 | 22 ft | 26 kts | 273° |
| 2026-05-05 11:29 | 26.68380 | -80.09654 | 22 ft | 28 kts | 273° |
| 2026-05-05 11:29 | 26.68389 | -80.09856 | 22 ft | 26 kts | 273° |
| 2026-05-05 11:29 | 26.68399 | -80.10064 | 21 ft | 28 kts | 273° |
| 2026-05-05 11:29 | 26.68407 | -80.10271 | 21 ft | 22 kts | 272° |
| 2026-05-05 11:30 | 26.68414 | -80.10438 | 21 ft | 22 kts | 272° |
| 2026-05-05 11:30 | 26.68420 | -80.10563 | 21 ft | 15 kts | 272° |
| 2026-05-05 11:30 | 26.68425 | -80.10678 | 21 ft | 12 kts | 273° |
| 2026-05-05 11:30 | 26.68429 | -80.10768 | 21 ft | 10 kts | 272° |
| 2026-05-05 11:31 | 26.68406 | -80.10821 | 21 ft | 9 kts | 200° |
| 2026-05-05 11:31 | 26.68345 | -80.10818 | 23 ft | 9 kts | 166° |
| 2026-05-05 11:31 | 26.68319 | -80.10789 | 23 ft | 5 kts | 99° |
| 2026-05-05 11:31 | 26.68319 | -80.10779 | 21 ft | 0 kts | 92° |
| 2026-05-05 11:32 | 26.68316 | -80.10706 | 21 ft | 34 kts | 92° |
| 2026-05-05 11:32 | 26.68292 | -80.10185 | 22 ft | 96 kts | 93° |
| 2026-05-05 11:32 | 26.68252 | -80.09244 | 22 ft | 144 kts | 92° |
| 2026-05-05 11:32 | 26.68198 | -80.08010 | 286 ft | 161 kts | 90° |
| 2026-05-05 11:33 | 26.68161 | -80.06744 | 857 ft | 164 kts | 90° |
| 2026-05-05 11:33 | 26.68194 | -80.05476 | 1474 ft | 166 kts | 80° |
| 2026-05-05 11:33 | 26.68618 | -80.04196 | 1767 ft | 188 kts | 63° |
| 2026-05-05 11:33 | 26.69278 | -80.02833 | 2000 ft | 212 kts | 64° |
| 2026-05-05 11:34 | 26.70004 | -80.01299 | 2315 ft | 236 kts | 63° |
| 2026-05-05 11:34 | 26.70794 | -79.99621 | 2886 ft | 248 kts | 63° |
| 2026-05-05 11:34 | 26.71622 | -79.97880 | 3607 ft | 257 kts | 59° |
| 2026-05-05 11:34 | 26.72744 | -79.96279 | 4335 ft | 265 kts | 49° |
| 2026-05-05 11:35 | 26.73970 | -79.94706 | 5110 ft | 272 kts | 49° |
| 2026-05-05 11:35 | 26.75225 | -79.93092 | 5872 ft | 278 kts | 49° |
| 2026-05-05 11:35 | 26.76492 | -79.91456 | 6597 ft | 285 kts | 49° |
| 2026-05-05 11:35 | 26.77803 | -79.89759 | 7323 ft | 289 kts | 49° |
| 2026-05-05 11:36 | 26.79125 | -79.88047 | 8028 ft | 296 kts | 49° |
| 2026-05-05 11:36 | 26.80506 | -79.86309 | 8764 ft | 300 kts | 42° |
| 2026-05-05 11:36 | 26.82220 | -79.84967 | 9510 ft | 303 kts | 28° |
| 2026-05-05 11:36 | 26.84066 | -79.83803 | 10185 ft | 309 kts | 27° |
| 2026-05-05 11:37 | 26.86022 | -79.82595 | 10352 ft | 332 kts | 27° |
| 2026-05-05 11:37 | 26.88110 | -79.81303 | 10620 ft | 350 kts | 27° |
| 2026-05-05 11:37 | 26.90256 | -79.79970 | 11187 ft | 356 kts | 27° |
| 2026-05-05 11:37 | 26.92425 | -79.78606 | 11802 ft | 360 kts | 27° |
| 2026-05-05 11:38 | 26.94615 | -79.77213 | 12397 ft | 364 kts | 27° |
| 2026-05-05 11:38 | 26.96826 | -79.75784 | 13019 ft | 368 kts | 27° |
| 2026-05-05 11:38 | 26.99044 | -79.74331 | 13618 ft | 372 kts | 27° |
| 2026-05-05 11:38 | 27.01285 | -79.72841 | 14158 ft | 376 kts | 27° |
| 2026-05-05 11:39 | 27.03514 | -79.71346 | 14678 ft | 380 kts | 27° |
| 2026-05-05 11:39 | 27.05787 | -79.69811 | 15209 ft | 383 kts | 27° |
| 2026-05-05 11:39 | 27.08076 | -79.68259 | 15736 ft | 386 kts | 27° |
| 2026-05-05 11:39 | 27.10431 | -79.66819 | 16267 ft | 385 kts | 18° |
| 2026-05-05 11:40 | 27.12934 | -79.65735 | 16795 ft | 387 kts | 16° |
| 2026-05-05 11:40 | 27.15460 | -79.64655 | 17333 ft | 390 kts | 16° |
| 2026-05-05 11:40 | 27.18011 | -79.63566 | 17872 ft | 393 kts | 16° |
| 2026-05-05 11:40 | 27.20581 | -79.62466 | 18414 ft | 397 kts | 16° |
| 2026-05-05 11:41 | 27.23169 | -79.61356 | 18910 ft | 400 kts | 15° |
| 2026-05-05 11:41 | 27.25778 | -79.60237 | 19444 ft | 402 kts | 15° |
| 2026-05-05 11:41 | 27.28396 | -79.59110 | 19996 ft | 404 kts | 15° |
| 2026-05-05 11:41 | 27.31017 | -79.57980 | 20556 ft | 406 kts | 15° |
| 2026-05-05 11:42 | 27.33620 | -79.56858 | 21108 ft | 407 kts | 14° |
| 2026-05-05 11:42 | 27.36281 | -79.55713 | 21637 ft | 409 kts | 14° |
| 2026-05-05 11:42 | 27.38951 | -79.54561 | 22157 ft | 411 kts | 14° |
| 2026-05-05 11:42 | 27.41626 | -79.53407 | 22530 ft | 413 kts | 14° |
| 2026-05-05 11:43 | 27.44332 | -79.52397 | 22787 ft | 405 kts | 5° |
| 2026-05-05 11:43 | 27.47089 | -79.51839 | 23005 ft | 403 kts | 2° |
| 2026-05-05 11:43 | 27.49863 | -79.51325 | 23066 ft | 403 kts | 2° |
| 2026-05-05 11:43 | 27.52631 | -79.50816 | 23065 ft | 403 kts | 2° |
| 2026-05-05 11:44 | 27.55410 | -79.50305 | 23303 ft | 406 kts | 2° |
| 2026-05-05 11:44 | 27.58194 | -79.49788 | 23801 ft | 407 kts | 2° |
| 2026-05-05 11:44 | 27.60998 | -79.49262 | 24219 ft | 408 kts | 2° |
| 2026-05-05 11:44 | 27.63812 | -79.48733 | 24624 ft | 410 kts | 2° |
| 2026-05-05 11:45 | 27.66629 | -79.48203 | 25027 ft | 411 kts | 2° |
| 2026-05-05 11:45 | 27.69455 | -79.47669 | 25426 ft | 412 kts | 2° |
| 2026-05-05 11:45 | 27.72284 | -79.47131 | 25824 ft | 413 kts | 2° |
| 2026-05-05 11:45 | 27.75142 | -79.46589 | 26001 ft | 420 kts | 2° |
| 2026-05-05 11:46 | 27.78050 | -79.46045 | 26162 ft | 426 kts | 2° |
| 2026-05-05 11:46 | 27.80975 | -79.45502 | 26418 ft | 430 kts | 2° |
| 2026-05-05 11:46 | 27.83967 | -79.44952 | 26542 ft | 437 kts | 2° |
| 2026-05-05 11:46 | 27.86988 | -79.44402 | 26663 ft | 443 kts | 2° |
| 2026-05-05 11:47 | 27.90037 | -79.43851 | 26785 ft | 448 kts | 2° |
| 2026-05-05 11:47 | 27.93143 | -79.43295 | 26913 ft | 453 kts | 2° |
| 2026-05-05 11:47 | 27.96272 | -79.42739 | 27059 ft | 457 kts | 2° |
| 2026-05-05 11:47 | 27.99423 | -79.42174 | 27307 ft | 458 kts | 2° |
| 2026-05-05 11:48 | 28.05646 | -79.40773 | 27857 ft | 467 kts | 12° |
| 2026-05-05 11:48 | 28.08726 | -79.39655 | 28191 ft | 460 kts | 6° |
| 2026-05-05 11:48 | 28.11838 | -79.38929 | 28537 ft | 456 kts | 4° |
| 2026-05-05 11:49 | 28.14942 | -79.38208 | 28895 ft | 454 kts | 4° |
| 2026-05-05 11:49 | 28.18030 | -79.37479 | 29250 ft | 452 kts | 4° |
| 2026-05-05 11:49 | 28.21101 | -79.36754 | 29624 ft | 450 kts | 4° |
| 2026-05-05 11:49 | 28.24169 | -79.36037 | 29997 ft | 448 kts | 4° |
| 2026-05-05 11:50 | 28.27208 | -79.35332 | 30380 ft | 446 kts | 3° |
| 2026-05-05 11:50 | 28.30253 | -79.34629 | 30708 ft | 444 kts | 3° |
| 2026-05-05 11:50 | 28.33279 | -79.33928 | 31037 ft | 442 kts | 3° |
| 2026-05-05 11:50 | 28.36283 | -79.33231 | 31365 ft | 440 kts | 3° |
| 2026-05-05 11:51 | 28.39278 | -79.32488 | 31701 ft | 440 kts | 4° |
| 2026-05-05 11:51 | 28.42243 | -79.31680 | 32035 ft | 439 kts | 5° |
| 2026-05-05 11:51 | 28.45208 | -79.30822 | 32376 ft | 437 kts | 6° |
| 2026-05-05 11:51 | 28.48147 | -79.29950 | 32723 ft | 435 kts | 6° |
| 2026-05-05 11:52 | 28.51040 | -79.29090 | 33012 ft | 434 kts | 6° |
| 2026-05-05 11:52 | 28.53955 | -79.28235 | 33124 ft | 432 kts | 5° |
| 2026-05-05 11:52 | 28.59772 | -79.26577 | 33087 ft | 430 kts | 5° |
| 2026-05-05 11:53 | 28.65577 | -79.24955 | 33089 ft | 429 kts | 5° |
| 2026-05-05 11:53 | 28.71386 | -79.23308 | 33092 ft | 430 kts | 5° |
| 2026-05-05 11:54 | 28.77182 | -79.21643 | 33090 ft | 430 kts | 5° |
| 2026-05-05 11:54 | 28.82986 | -79.19980 | 33114 ft | 430 kts | 5° |
| 2026-05-05 11:55 | 28.88796 | -79.18324 | 33093 ft | 430 kts | 5° |
| 2026-05-05 11:55 | 28.94569 | -79.16678 | 33094 ft | 430 kts | 5° |
| 2026-05-05 11:56 | 29.00378 | -79.15014 | 33096 ft | 430 kts | 5° |
| 2026-05-05 11:56 | 29.06182 | -79.13350 | 33099 ft | 430 kts | 5° |
| 2026-05-05 11:57 | 29.11991 | -79.11674 | 33101 ft | 431 kts | 5° |
| 2026-05-05 11:57 | 29.16869 | -79.10275 | 33104 ft | 431 kts | 5° |
| 2026-05-05 11:58 | 29.22659 | -79.08613 | 33103 ft | 431 kts | 5° |
| 2026-05-05 11:58 | 29.28482 | -79.06942 | 33106 ft | 431 kts | 5° |
| 2026-05-05 11:59 | 29.34304 | -79.05265 | 33110 ft | 432 kts | 5° |
| 2026-05-05 11:59 | 29.40182 | -79.03573 | 33106 ft | 438 kts | 5° |
| 2026-05-05 12:00 | 29.46102 | -79.01853 | 33111 ft | 439 kts | 6° |
| 2026-05-05 12:00 | 29.52030 | -79.00128 | 33114 ft | 439 kts | 5° |
| 2026-05-05 12:01 | 29.57956 | -78.98410 | 33111 ft | 439 kts | 6° |
| 2026-05-05 12:01 | 29.63858 | -78.96696 | 33111 ft | 439 kts | 5° |
| 2026-05-05 12:02 | 29.69797 | -78.94971 | 33112 ft | 440 kts | 6° |
| 2026-05-05 12:02 | 29.75740 | -78.93249 | 33118 ft | 441 kts | 6° |
| 2026-05-05 12:03 | 29.81695 | -78.91514 | 33115 ft | 441 kts | 6° |
| 2026-05-05 12:03 | 29.87647 | -78.89784 | 33123 ft | 441 kts | 6° |
| 2026-05-05 12:04 | 29.93593 | -78.88045 | 33167 ft | 441 kts | 6° |
| 2026-05-05 12:04 | 29.99555 | -78.86304 | 33123 ft | 442 kts | 6° |
| 2026-05-05 12:05 | 30.05489 | -78.84569 | 33127 ft | 442 kts | 6° |
| 2026-05-05 12:05 | 30.11440 | -78.82829 | 33125 ft | 442 kts | 6° |
| 2026-05-05 12:06 | 30.17413 | -78.81077 | 33125 ft | 442 kts | 6° |
| 2026-05-05 12:06 | 30.23387 | -78.79319 | 33125 ft | 442 kts | 6° |
| 2026-05-05 12:07 | 30.29343 | -78.77570 | 33128 ft | 442 kts | 6° |
| 2026-05-05 12:07 | 30.35301 | -78.75812 | 33128 ft | 443 kts | 6° |
| 2026-05-05 12:08 | 30.41268 | -78.74051 | 33131 ft | 442 kts | 6° |
| 2026-05-05 12:08 | 30.47242 | -78.72290 | 33162 ft | 442 kts | 6° |
| 2026-05-05 12:09 | 30.53222 | -78.70521 | 33131 ft | 443 kts | 6° |
| 2026-05-05 12:09 | 30.59210 | -78.68746 | 33139 ft | 444 kts | 6° |
| 2026-05-05 12:10 | 30.65212 | -78.66969 | 33132 ft | 447 kts | 7° |
| 2026-05-05 12:10 | 30.71221 | -78.65189 | 33133 ft | 448 kts | 7° |
| 2026-05-05 12:11 | 30.77266 | -78.63396 | 33128 ft | 448 kts | 6° |
| 2026-05-05 12:11 | 30.83297 | -78.61603 | 33134 ft | 448 kts | 7° |
| 2026-05-05 12:12 | 30.89338 | -78.59800 | 33134 ft | 448 kts | 7° |
| 2026-05-05 12:12 | 30.95392 | -78.57994 | 33136 ft | 448 kts | 7° |
| 2026-05-05 12:13 | 31.01431 | -78.56183 | 33174 ft | 448 kts | 6° |
| 2026-05-05 12:13 | 31.07473 | -78.54383 | 33140 ft | 448 kts | 6° |
| 2026-05-05 12:14 | 31.13517 | -78.52578 | 33144 ft | 448 kts | 6° |
| 2026-05-05 12:14 | 31.19562 | -78.50774 | 33140 ft | 448 kts | 7° |
| 2026-05-05 12:15 | 31.25599 | -78.48958 | 33138 ft | 448 kts | 7° |
| 2026-05-05 12:15 | 31.31658 | -78.47132 | 33133 ft | 448 kts | 6° |
| 2026-05-05 12:16 | 31.37692 | -78.45318 | 33141 ft | 448 kts | 6° |
| 2026-05-05 12:16 | 31.43730 | -78.43495 | 33140 ft | 448 kts | 7° |
| 2026-05-05 12:17 | 31.49727 | -78.41684 | 33145 ft | 448 kts | 7° |
| 2026-05-05 12:17 | 31.55765 | -78.39858 | 33172 ft | 448 kts | 7° |
| 2026-05-05 12:18 | 31.61795 | -78.38025 | 33149 ft | 447 kts | 7° |
| 2026-05-05 12:18 | 31.67816 | -78.36209 | 33150 ft | 447 kts | 7° |
| 2026-05-05 12:19 | 31.73853 | -78.34386 | 33139 ft | 447 kts | 7° |
| 2026-05-05 12:19 | 31.79872 | -78.32554 | 33148 ft | 447 kts | 7° |
| 2026-05-05 12:20 | 31.85894 | -78.30705 | 33143 ft | 447 kts | 7° |
| 2026-05-05 12:20 | 31.91872 | -78.28886 | 33141 ft | 447 kts | 7° |
| 2026-05-05 12:21 | 31.97895 | -78.27053 | 33144 ft | 447 kts | 7° |
| 2026-05-05 12:21 | 32.03932 | -78.25466 | 33146 ft | 438 kts | 359° |
| 2026-05-05 12:22 | 32.10012 | -78.24585 | 33143 ft | 441 kts | 1° |
| 2026-05-05 12:22 | 32.16102 | -78.23626 | 33147 ft | 442 kts | 1° |
| 2026-05-05 12:23 | 32.22198 | -78.22704 | 33147 ft | 441 kts | 0° |
| 2026-05-05 12:23 | 32.28294 | -78.21830 | 33147 ft | 441 kts | 0° |
| 2026-05-05 12:24 | 32.34396 | -78.20960 | 33171 ft | 442 kts | 1° |
| 2026-05-05 12:24 | 32.40514 | -78.20064 | 33147 ft | 444 kts | 1° |
| 2026-05-05 12:25 | 32.46612 | -78.19166 | 33147 ft | 444 kts | 1° |
| 2026-05-05 12:25 | 32.52751 | -78.18265 | 33147 ft | 444 kts | 1° |
| 2026-05-05 12:26 | 32.58886 | -78.17362 | 33147 ft | 444 kts | 1° |
| 2026-05-05 12:26 | 32.65043 | -78.16443 | 33146 ft | 447 kts | 1° |
| 2026-05-05 12:27 | 32.71223 | -78.15537 | 33147 ft | 447 kts | 1° |
| 2026-05-05 12:27 | 32.77404 | -78.14629 | 33147 ft | 448 kts | 1° |
| 2026-05-05 12:28 | 32.83583 | -78.13723 | 33147 ft | 447 kts | 1° |
| 2026-05-05 12:28 | 32.89767 | -78.12812 | 33148 ft | 447 kts | 1° |
| 2026-05-05 12:29 | 32.95903 | -78.11903 | 33144 ft | 447 kts | 1° |
| 2026-05-05 12:29 | 33.02080 | -78.10979 | 33144 ft | 447 kts | 1° |
| 2026-05-05 12:30 | 33.08260 | -78.10063 | 33147 ft | 447 kts | 1° |
| 2026-05-05 12:30 | 33.14449 | -78.09150 | 33141 ft | 450 kts | 2° |
| 2026-05-05 12:31 | 33.20674 | -78.08228 | 33145 ft | 451 kts | 2° |
| 2026-05-05 12:31 | 33.26912 | -78.07294 | 33139 ft | 452 kts | 2° |
| 2026-05-05 12:32 | 33.33149 | -78.06360 | 33141 ft | 451 kts | 2° |
| 2026-05-05 12:32 | 33.39382 | -78.05423 | 33147 ft | 452 kts | 3° |
| 2026-05-05 12:33 | 33.45644 | -78.04488 | 33141 ft | 454 kts | 3° |
| 2026-05-05 12:33 | 33.51905 | -78.03545 | 33141 ft | 454 kts | 3° |
| 2026-05-05 12:34 | 33.58178 | -78.02593 | 33138 ft | 454 kts | 3° |
| 2026-05-05 12:34 | 33.64407 | -78.01658 | 33151 ft | 454 kts | 3° |
| 2026-05-05 12:35 | 33.70685 | -78.00717 | 33137 ft | 455 kts | 3° |
| 2026-05-05 12:35 | 33.76968 | -77.99771 | 33149 ft | 455 kts | 3° |
| 2026-05-05 12:36 | 33.83250 | -77.98821 | 33153 ft | 455 kts | 3° |
| 2026-05-05 12:36 | 33.89517 | -77.97877 | 33164 ft | 455 kts | 4° |
| 2026-05-05 12:37 | 33.95801 | -77.96902 | 33152 ft | 455 kts | 4° |
| 2026-05-05 12:37 | 34.02081 | -77.95902 | 33150 ft | 455 kts | 4° |
| 2026-05-05 12:38 | 34.08365 | -77.94912 | 33143 ft | 456 kts | 4° |
| 2026-05-05 12:38 | 34.14674 | -77.93933 | 33162 ft | 457 kts | 4° |
| 2026-05-05 12:39 | 34.20943 | -77.92947 | 33159 ft | 457 kts | 4° |
| 2026-05-05 12:39 | 34.27244 | -77.91953 | 33156 ft | 457 kts | 4° |
| 2026-05-05 12:40 | 34.33549 | -77.90967 | 33156 ft | 457 kts | 4° |
| 2026-05-05 12:40 | 34.39848 | -77.89969 | 33167 ft | 457 kts | 4° |
| 2026-05-05 12:41 | 34.46147 | -77.88963 | 33143 ft | 456 kts | 4° |
| 2026-05-05 12:41 | 34.52445 | -77.87968 | 33147 ft | 456 kts | 4° |
| 2026-05-05 12:42 | 34.58740 | -77.86979 | 33158 ft | 456 kts | 4° |
| 2026-05-05 12:42 | 34.65039 | -77.85974 | 33176 ft | 456 kts | 4° |
| 2026-05-05 12:43 | 34.70270 | -77.85134 | 33163 ft | 457 kts | 4° |
| 2026-05-05 12:43 | 34.76570 | -77.84131 | 33161 ft | 457 kts | 4° |
| 2026-05-05 12:44 | 34.82876 | -77.83129 | 33158 ft | 457 kts | 4° |
| 2026-05-05 12:44 | 34.89130 | -77.81714 | 33168 ft | 460 kts | 12° |
| 2026-05-05 12:45 | 34.95310 | -77.79630 | 33157 ft | 461 kts | 12° |
| 2026-05-05 12:45 | 35.01496 | -77.77535 | 33156 ft | 461 kts | 12° |
| 2026-05-05 12:46 | 35.07680 | -77.75434 | 33149 ft | 461 kts | 12° |
| 2026-05-05 12:46 | 35.13823 | -77.73347 | 33153 ft | 461 kts | 12° |
| 2026-05-05 12:47 | 35.20008 | -77.71250 | 33145 ft | 461 kts | 12° |
| 2026-05-05 12:47 | 35.26195 | -77.69147 | 33146 ft | 461 kts | 12° |
| 2026-05-05 12:48 | 35.32382 | -77.67036 | 33147 ft | 462 kts | 12° |
| 2026-05-05 12:48 | 35.38572 | -77.64924 | 33146 ft | 462 kts | 12° |
| 2026-05-05 12:49 | 35.44758 | -77.62805 | 33144 ft | 462 kts | 12° |
| 2026-05-05 12:49 | 35.50951 | -77.60687 | 33143 ft | 462 kts | 12° |
| 2026-05-05 12:50 | 35.57145 | -77.58567 | 33143 ft | 462 kts | 12° |
| 2026-05-05 12:50 | 35.63344 | -77.56444 | 33139 ft | 463 kts | 12° |
| 2026-05-05 12:51 | 35.69561 | -77.54302 | 33145 ft | 464 kts | 12° |
| 2026-05-05 12:51 | 35.75782 | -77.52164 | 33140 ft | 464 kts | 12° |
| 2026-05-05 12:52 | 35.81986 | -77.50134 | 33137 ft | 464 kts | 11° |
| 2026-05-05 12:52 | 35.88234 | -77.48130 | 33130 ft | 464 kts | 11° |
| 2026-05-05 12:53 | 35.94485 | -77.46099 | 33138 ft | 465 kts | 11° |
| 2026-05-05 12:53 | 36.00729 | -77.44045 | 33138 ft | 465 kts | 11° |
| 2026-05-05 12:54 | 36.10116 | -77.40966 | 33129 ft | 465 kts | 11° |
| 2026-05-05 12:55 | 36.16392 | -77.38914 | 33123 ft | 466 kts | 11° |
| 2026-05-05 12:55 | 36.22656 | -77.36856 | 33124 ft | 466 kts | 11° |
| 2026-05-05 12:56 | 36.28926 | -77.34782 | 33123 ft | 466 kts | 11° |
| 2026-05-05 12:56 | 36.35190 | -77.32704 | 33122 ft | 467 kts | 11° |
| 2026-05-05 12:56 | 36.38299 | -77.31676 | 33391 ft | 467 kts | 11° |
| 2026-05-05 12:57 | 36.41438 | -77.30637 | 33734 ft | 466 kts | 11° |
| 2026-05-05 12:57 | 36.44576 | -77.29598 | 34068 ft | 466 kts | 11° |
| 2026-05-05 12:57 | 36.47703 | -77.28564 | 34360 ft | 465 kts | 11° |
| 2026-05-05 12:57 | 36.50830 | -77.27532 | 34651 ft | 464 kts | 11° |
| 2026-05-05 12:58 | 36.53943 | -77.26503 | 34947 ft | 464 kts | 11° |
| 2026-05-05 12:58 | 36.57066 | -77.25470 | 35089 ft | 463 kts | 11° |
| 2026-05-05 12:58 | 36.60184 | -77.24436 | 35107 ft | 462 kts | 11° |
| 2026-05-05 12:59 | 36.66395 | -77.22366 | 35104 ft | 462 kts | 11° |
| 2026-05-05 12:59 | 36.72606 | -77.20290 | 35098 ft | 464 kts | 11° |
| 2026-05-05 13:00 | 36.81963 | -77.17161 | 35084 ft | 463 kts | 11° |
| 2026-05-05 13:01 | 36.94434 | -77.12988 | 35097 ft | 464 kts | 11° |
| 2026-05-05 13:01 | 37.00633 | -77.10905 | 35102 ft | 464 kts | 11° |
| 2026-05-05 13:02 | 37.06878 | -77.09020 | 35082 ft | 462 kts | 11° |
| 2026-05-05 13:02 | 37.13078 | -77.06847 | 35086 ft | 463 kts | 12° |
| 2026-05-05 13:03 | 37.19279 | -77.04615 | 35089 ft | 464 kts | 12° |
| 2026-05-05 13:03 | 37.25495 | -77.02474 | 35100 ft | 463 kts | 11° |
| 2026-05-05 13:04 | 37.31718 | -77.00395 | 35089 ft | 463 kts | 11° |
| 2026-05-05 13:04 | 37.37940 | -76.98308 | 35081 ft | 463 kts | 11° |
| 2026-05-05 13:05 | 37.44166 | -76.96190 | 35081 ft | 463 kts | 13° |
| 2026-05-05 13:05 | 37.50093 | -76.92906 | 35090 ft | 468 kts | 25° |
| 2026-05-05 13:06 | 37.55849 | -76.89058 | 35079 ft | 468 kts | 24° |
| 2026-05-05 13:06 | 37.61606 | -76.85236 | 35100 ft | 468 kts | 24° |
| 2026-05-05 13:07 | 37.67371 | -76.81410 | 35088 ft | 468 kts | 25° |
| 2026-05-05 13:07 | 37.73133 | -76.77557 | 35078 ft | 469 kts | 25° |
| 2026-05-05 13:08 | 37.78897 | -76.73693 | 35066 ft | 469 kts | 25° |
| 2026-05-05 13:08 | 37.84656 | -76.69836 | 35057 ft | 469 kts | 25° |
| 2026-05-05 13:09 | 37.90403 | -76.66027 | 35057 ft | 469 kts | 24° |
| 2026-05-05 13:09 | 37.96246 | -76.62330 | 35058 ft | 468 kts | 22° |
| 2026-05-05 13:10 | 38.02091 | -76.58693 | 35046 ft | 468 kts | 23° |
| 2026-05-05 13:10 | 38.07922 | -76.55012 | 35045 ft | 468 kts | 23° |
| 2026-05-05 13:11 | 38.13739 | -76.51291 | 35059 ft | 467 kts | 23° |
| 2026-05-05 13:11 | 38.19549 | -76.47572 | 35049 ft | 468 kts | 24° |
| 2026-05-05 13:12 | 38.25363 | -76.43853 | 35026 ft | 468 kts | 23° |
| 2026-05-05 13:12 | 38.30955 | -76.39697 | 35021 ft | 472 kts | 35° |
| 2026-05-05 13:13 | 38.36162 | -76.34599 | 35027 ft | 472 kts | 34° |
| 2026-05-05 13:13 | 38.41382 | -76.29517 | 35031 ft | 471 kts | 34° |
| 2026-05-05 13:14 | 38.46597 | -76.24434 | 35040 ft | 471 kts | 34° |
| 2026-05-05 13:14 | 38.51794 | -76.19340 | 35040 ft | 471 kts | 34° |
| 2026-05-05 13:15 | 38.56983 | -76.14238 | 34829 ft | 469 kts | 35° |
| 2026-05-05 13:15 | 38.59549 | -76.11714 | 34588 ft | 469 kts | 35° |
| 2026-05-05 13:15 | 38.62141 | -76.09159 | 34342 ft | 469 kts | 35° |
| 2026-05-05 13:16 | 38.64740 | -76.06619 | 34104 ft | 470 kts | 34° |
| 2026-05-05 13:16 | 38.67369 | -76.04130 | 33827 ft | 470 kts | 33° |
| 2026-05-05 13:16 | 38.69984 | -76.01714 | 33559 ft | 471 kts | 33° |
| 2026-05-05 13:16 | 38.72649 | -75.99269 | 33287 ft | 472 kts | 33° |
| 2026-05-05 13:17 | 38.75316 | -75.96813 | 33034 ft | 473 kts | 33° |
| 2026-05-05 13:17 | 38.77985 | -75.94336 | 32767 ft | 474 kts | 33° |
| 2026-05-05 13:17 | 38.80642 | -75.91852 | 32469 ft | 475 kts | 34° |
| 2026-05-05 13:17 | 38.83331 | -75.89322 | 31436 ft | 480 kts | 34° |
| 2026-05-05 13:18 | 38.86026 | -75.86777 | 30502 ft | 483 kts | 34° |
| 2026-05-05 13:18 | 38.88757 | -75.84196 | 29281 ft | 489 kts | 34° |
| 2026-05-05 13:18 | 38.91505 | -75.81602 | 28199 ft | 490 kts | 34° |
| 2026-05-05 13:18 | 38.94259 | -75.79009 | 26976 ft | 493 kts | 34° |
| 2026-05-05 13:19 | 38.97035 | -75.76401 | 26097 ft | 492 kts | 34° |
| 2026-05-05 13:19 | 38.99798 | -75.73798 | 25830 ft | 494 kts | 34° |
| 2026-05-05 13:19 | 39.02556 | -75.71192 | 25575 ft | 494 kts | 34° |
| 2026-05-05 13:19 | 39.05326 | -75.68569 | 25339 ft | 494 kts | 34° |
| 2026-05-05 13:20 | 39.08085 | -75.65950 | 25095 ft | 493 kts | 34° |
| 2026-05-05 13:20 | 39.10836 | -75.63332 | 24848 ft | 491 kts | 34° |
| 2026-05-05 13:20 | 39.13586 | -75.60718 | 24620 ft | 489 kts | 33° |
| 2026-05-05 13:20 | 39.16321 | -75.58121 | 24384 ft | 488 kts | 33° |
| 2026-05-05 13:21 | 39.19048 | -75.55534 | 24147 ft | 483 kts | 33° |
| 2026-05-05 13:21 | 39.21704 | -75.53006 | 23913 ft | 465 kts | 33° |
| 2026-05-05 13:21 | 39.24210 | -75.50625 | 23870 ft | 450 kts | 33° |
| 2026-05-05 13:21 | 39.26757 | -75.48290 | 23633 ft | 445 kts | 32° |
| 2026-05-05 13:22 | 39.29306 | -75.46035 | 23379 ft | 443 kts | 31° |
| 2026-05-05 13:22 | 39.31889 | -75.43787 | 23099 ft | 441 kts | 31° |
| 2026-05-05 13:22 | 39.34401 | -75.41608 | 22839 ft | 440 kts | 31° |
| 2026-05-05 13:22 | 39.36967 | -75.39368 | 22566 ft | 439 kts | 31° |
| 2026-05-05 13:23 | 39.39451 | -75.37175 | 22305 ft | 437 kts | 31° |
| 2026-05-05 13:23 | 39.41958 | -75.34948 | 22043 ft | 436 kts | 31° |
| 2026-05-05 13:23 | 39.44452 | -75.32726 | 21778 ft | 435 kts | 31° |
| 2026-05-05 13:23 | 39.46942 | -75.30503 | 21520 ft | 433 kts | 31° |
| 2026-05-05 13:24 | 39.49414 | -75.28285 | 21263 ft | 432 kts | 31° |